sensor_id;sensor_type;location;lat;lon;timestamp;P1;durP1;ratioP1;P2;durP2;ratioP2
53545;SDS011;39432;51.902;10.844;2023-05-21T00:01:08;14.75;;;8.43;;
53545;SDS011;39432;51.902;10.844;2023-05-21T00:03:42;11.75;;;8.30;;
53545;SDS011;39432;51.902;10.844;2023-05-21T00:06:14;12.35;;;8.35;;
53545;SDS011;39432;51.902;10.844;2023-05-21T00:08:46;12.93;;;9.30;;
53545;SDS011;39432;51.902;10.844;2023-05-21T00:11:16;10.77;;;7.88;;
53545;SDS011;39432;51.902;10.844;2023-05-21T00:13:46;13.95;;;8.85;;
53545;SDS011;39432;51.902;10.844;2023-05-21T00:16:16;12.32;;;8.02;;
53545;SDS011;39432;51.902;10.844;2023-05-21T00:18:46;12.15;;;7.88;;
53545;SDS011;39432;51.902;10.844;2023-05-21T00:21:19;11.52;;;8.38;;
53545;SDS011;39432;51.902;10.844;2023-05-21T00:23:52;14.90;;;7.70;;
53545;SDS011;39432;51.902;10.844;2023-05-21T00:26:22;12.25;;;7.65;;
53545;SDS011;39432;51.902;10.844;2023-05-21T00:28:55;11.93;;;8.20;;
53545;SDS011;39432;51.902;10.844;2023-05-21T00:31:25;11.95;;;8.25;;
53545;SDS011;39432;51.902;10.844;2023-05-21T00:33:55;11.90;;;7.93;;
53545;SDS011;39432;51.902;10.844;2023-05-21T00:36:27;12.60;;;8.18;;
53545;SDS011;39432;51.902;10.844;2023-05-21T00:38:57;11.75;;;8.40;;
53545;SDS011;39432;51.902;10.844;2023-05-21T00:41:28;11.30;;;8.45;;
53545;SDS011;39432;51.902;10.844;2023-05-21T00:43:58;12.32;;;8.13;;
53545;SDS011;39432;51.902;10.844;2023-05-21T00:46:28;14.85;;;8.95;;
53545;SDS011;39432;51.902;10.844;2023-05-21T00:48:59;12.20;;;8.63;;
53545;SDS011;39432;51.902;10.844;2023-05-21T00:51:32;13.25;;;9.57;;
53545;SDS011;39432;51.902;10.844;2023-05-21T00:54:02;11.60;;;8.35;;
53545;SDS011;39432;51.902;10.844;2023-05-21T00:56:33;12.32;;;8.50;;
53545;SDS011;39432;51.902;10.844;2023-05-21T00:59:04;13.40;;;8.77;;
53545;SDS011;39432;51.902;10.844;2023-05-21T01:01:33;12.20;;;8.25;;
53545;SDS011;39432;51.902;10.844;2023-05-21T01:04:03;11.70;;;9.00;;
53545;SDS011;39432;51.902;10.844;2023-05-21T01:06:36;11.80;;;8.70;;
53545;SDS011;39432;51.902;10.844;2023-05-21T01:09:06;13.05;;;8.88;;
53545;SDS011;39432;51.902;10.844;2023-05-21T01:11:36;14.68;;;9.70;;
53545;SDS011;39432;51.902;10.844;2023-05-21T01:14:08;15.23;;;9.25;;
53545;SDS011;39432;51.902;10.844;2023-05-21T01:16:40;11.00;;;8.32;;
53545;SDS011;39432;51.902;10.844;2023-05-21T01:19:14;11.23;;;9.20;;
53545;SDS011;39432;51.902;10.844;2023-05-21T01:21:48;12.40;;;8.70;;
53545;SDS011;39432;51.902;10.844;2023-05-21T01:24:24;13.02;;;8.95;;
53545;SDS011;39432;51.902;10.844;2023-05-21T01:26:54;13.52;;;9.35;;
53545;SDS011;39432;51.902;10.844;2023-05-21T01:29:24;13.30;;;9.32;;
53545;SDS011;39432;51.902;10.844;2023-05-21T01:31:55;12.13;;;9.55;;
53545;SDS011;39432;51.902;10.844;2023-05-21T01:34:31;12.52;;;9.77;;
53545;SDS011;39432;51.902;10.844;2023-05-21T01:37:07;11.52;;;8.77;;
53545;SDS011;39432;51.902;10.844;2023-05-21T01:39:46;14.20;;;9.82;;
53545;SDS011;39432;51.902;10.844;2023-05-21T01:42:24;14.60;;;9.50;;
53545;SDS011;39432;51.902;10.844;2023-05-21T01:44:56;12.07;;;9.80;;
53545;SDS011;39432;51.902;10.844;2023-05-21T01:47:28;12.80;;;9.60;;
53545;SDS011;39432;51.902;10.844;2023-05-21T01:50:00;12.85;;;9.65;;
53545;SDS011;39432;51.902;10.844;2023-05-21T01:52:31;13.80;;;9.55;;
53545;SDS011;39432;51.902;10.844;2023-05-21T01:55:04;18.08;;;9.52;;
53545;SDS011;39432;51.902;10.844;2023-05-21T01:57:35;13.23;;;9.38;;
53545;SDS011;39432;51.902;10.844;2023-05-21T02:00:08;12.43;;;9.45;;
53545;SDS011;39432;51.902;10.844;2023-05-21T02:02:42;12.73;;;9.45;;
53545;SDS011;39432;51.902;10.844;2023-05-21T02:05:12;14.18;;;10.43;;
53545;SDS011;39432;51.902;10.844;2023-05-21T02:07:43;12.98;;;10.15;;
53545;SDS011;39432;51.902;10.844;2023-05-21T02:10:16;13.68;;;10.02;;
53545;SDS011;39432;51.902;10.844;2023-05-21T02:12:46;14.20;;;9.57;;
53545;SDS011;39432;51.902;10.844;2023-05-21T02:15:16;18.45;;;9.82;;
53545;SDS011;39432;51.902;10.844;2023-05-21T02:17:46;14.20;;;10.02;;
53545;SDS011;39432;51.902;10.844;2023-05-21T02:20:17;13.55;;;9.88;;
53545;SDS011;39432;51.902;10.844;2023-05-21T02:22:48;14.20;;;10.15;;
53545;SDS011;39432;51.902;10.844;2023-05-21T02:25:20;11.77;;;9.32;;
53545;SDS011;39432;51.902;10.844;2023-05-21T02:27:50;16.45;;;10.13;;
53545;SDS011;39432;51.902;10.844;2023-05-21T02:30:22;13.38;;;9.38;;
53545;SDS011;39432;51.902;10.844;2023-05-21T02:32:52;15.52;;;9.70;;
53545;SDS011;39432;51.902;10.844;2023-05-21T02:35:24;12.25;;;9.40;;
53545;SDS011;39432;51.902;10.844;2023-05-21T02:37:54;12.93;;;9.75;;
53545;SDS011;39432;51.902;10.844;2023-05-21T02:40:27;14.95;;;9.57;;
53545;SDS011;39432;51.902;10.844;2023-05-21T02:43:01;11.68;;;8.95;;
53545;SDS011;39432;51.902;10.844;2023-05-21T02:45:31;13.60;;;10.27;;
53545;SDS011;39432;51.902;10.844;2023-05-21T02:48:01;11.95;;;9.45;;
53545;SDS011;39432;51.902;10.844;2023-05-21T02:50:36;12.85;;;9.55;;
53545;SDS011;39432;51.902;10.844;2023-05-21T02:53:07;14.10;;;10.00;;
53545;SDS011;39432;51.902;10.844;2023-05-21T02:55:39;14.98;;;11.10;;
53545;SDS011;39432;51.902;10.844;2023-05-21T02:58:09;16.90;;;11.23;;
53545;SDS011;39432;51.902;10.844;2023-05-21T03:00:39;17.27;;;10.68;;
53545;SDS011;39432;51.902;10.844;2023-05-21T03:03:09;16.20;;;10.23;;
53545;SDS011;39432;51.902;10.844;2023-05-21T03:05:40;13.40;;;11.13;;
53545;SDS011;39432;51.902;10.844;2023-05-21T03:08:11;14.57;;;10.55;;
53545;SDS011;39432;51.902;10.844;2023-05-21T03:10:44;15.93;;;10.85;;
53545;SDS011;39432;51.902;10.844;2023-05-21T03:13:14;14.00;;;10.18;;
53545;SDS011;39432;51.902;10.844;2023-05-21T03:15:44;16.08;;;11.10;;
53545;SDS011;39432;51.902;10.844;2023-05-21T03:18:14;17.88;;;10.82;;
53545;SDS011;39432;51.902;10.844;2023-05-21T03:20:44;16.80;;;11.35;;
53545;SDS011;39432;51.902;10.844;2023-05-21T03:23:13;13.63;;;10.35;;
53545;SDS011;39432;51.902;10.844;2023-05-21T03:25:46;22.40;;;12.10;;
53545;SDS011;39432;51.902;10.844;2023-05-21T03:28:16;17.65;;;12.10;;
53545;SDS011;39432;51.902;10.844;2023-05-21T03:30:48;15.20;;;11.35;;
53545;SDS011;39432;51.902;10.844;2023-05-21T03:33:42;14.27;;;11.02;;
53545;SDS011;39432;51.902;10.844;2023-05-21T03:36:26;20.52;;;11.85;;
53545;SDS011;39432;51.902;10.844;2023-05-21T03:38:56;14.48;;;10.90;;
53545;SDS011;39432;51.902;10.844;2023-05-21T03:41:29;16.70;;;11.30;;
53545;SDS011;39432;51.902;10.844;2023-05-21T03:44:19;15.07;;;11.55;;
53545;SDS011;39432;51.902;10.844;2023-05-21T03:46:54;15.30;;;11.63;;
53545;SDS011;39432;51.902;10.844;2023-05-21T03:49:26;21.35;;;12.48;;
53545;SDS011;39432;51.902;10.844;2023-05-21T03:51:57;15.85;;;11.82;;
53545;SDS011;39432;51.902;10.844;2023-05-21T03:54:27;17.50;;;12.52;;
53545;SDS011;39432;51.902;10.844;2023-05-21T03:57:04;15.43;;;11.32;;
53545;SDS011;39432;51.902;10.844;2023-05-21T03:59:34;15.23;;;11.23;;
53545;SDS011;39432;51.902;10.844;2023-05-21T04:02:04;14.18;;;10.73;;
53545;SDS011;39432;51.902;10.844;2023-05-21T04:04:34;17.20;;;11.80;;
53545;SDS011;39432;51.902;10.844;2023-05-21T04:07:04;15.48;;;11.65;;
53545;SDS011;39432;51.902;10.844;2023-05-21T04:09:40;18.27;;;12.77;;
53545;SDS011;39432;51.902;10.844;2023-05-21T04:12:14;20.42;;;12.48;;
53545;SDS011;39432;51.902;10.844;2023-05-21T04:14:46;16.15;;;12.05;;
53545;SDS011;39432;51.902;10.844;2023-05-21T04:17:16;18.05;;;11.90;;
53545;SDS011;39432;51.902;10.844;2023-05-21T04:19:49;22.48;;;12.60;;
53545;SDS011;39432;51.902;10.844;2023-05-21T04:22:19;17.85;;;12.43;;
53545;SDS011;39432;51.902;10.844;2023-05-21T04:24:52;16.58;;;12.68;;
53545;SDS011;39432;51.902;10.844;2023-05-21T04:27:30;16.88;;;12.45;;
53545;SDS011;39432;51.902;10.844;2023-05-21T04:30:00;16.95;;;12.80;;
53545;SDS011;39432;51.902;10.844;2023-05-21T04:32:32;18.30;;;13.32;;
53545;SDS011;39432;51.902;10.844;2023-05-21T04:35:02;18.08;;;12.48;;
53545;SDS011;39432;51.902;10.844;2023-05-21T04:37:33;16.58;;;12.80;;
53545;SDS011;39432;51.902;10.844;2023-05-21T04:40:03;20.20;;;12.80;;
53545;SDS011;39432;51.902;10.844;2023-05-21T04:42:37;19.85;;;13.88;;
53545;SDS011;39432;51.902;10.844;2023-05-21T04:45:08;16.27;;;12.10;;
53545;SDS011;39432;51.902;10.844;2023-05-21T04:47:41;19.10;;;12.85;;
53545;SDS011;39432;51.902;10.844;2023-05-21T04:50:11;15.57;;;11.13;;
53545;SDS011;39432;51.902;10.844;2023-05-21T04:52:41;15.70;;;11.63;;
53545;SDS011;39432;51.902;10.844;2023-05-21T04:55:11;17.35;;;12.32;;
53545;SDS011;39432;51.902;10.844;2023-05-21T04:57:44;19.65;;;13.32;;
53545;SDS011;39432;51.902;10.844;2023-05-21T05:00:14;18.80;;;12.50;;
53545;SDS011;39432;51.902;10.844;2023-05-21T05:02:45;16.73;;;13.20;;
53545;SDS011;39432;51.902;10.844;2023-05-21T05:05:15;17.88;;;12.60;;
53545;SDS011;39432;51.902;10.844;2023-05-21T05:07:46;16.17;;;12.15;;
53545;SDS011;39432;51.902;10.844;2023-05-21T05:10:16;18.75;;;12.20;;
53545;SDS011;39432;51.902;10.844;2023-05-21T05:12:48;14.55;;;11.45;;
53545;SDS011;39432;51.902;10.844;2023-05-21T05:15:18;16.48;;;11.55;;
53545;SDS011;39432;51.902;10.844;2023-05-21T05:17:48;14.05;;;10.73;;
53545;SDS011;39432;51.902;10.844;2023-05-21T05:20:20;13.85;;;9.90;;
53545;SDS011;39432;51.902;10.844;2023-05-21T05:22:50;14.75;;;9.75;;
53545;SDS011;39432;51.902;10.844;2023-05-21T05:25:20;13.18;;;10.30;;
53545;SDS011;39432;51.902;10.844;2023-05-21T05:27:52;16.00;;;11.75;;
53545;SDS011;39432;51.902;10.844;2023-05-21T05:30:22;15.02;;;10.90;;
53545;SDS011;39432;51.902;10.844;2023-05-21T05:32:56;15.75;;;10.80;;
53545;SDS011;39432;51.902;10.844;2023-05-21T05:35:26;16.83;;;11.13;;
53545;SDS011;39432;51.902;10.844;2023-05-21T05:37:55;15.23;;;11.65;;
53545;SDS011;39432;51.902;10.844;2023-05-21T05:40:26;15.75;;;11.55;;
53545;SDS011;39432;51.902;10.844;2023-05-21T05:42:59;14.45;;;10.93;;
53545;SDS011;39432;51.902;10.844;2023-05-21T05:45:29;17.95;;;11.60;;
53545;SDS011;39432;51.902;10.844;2023-05-21T05:48:00;18.67;;;12.02;;
53545;SDS011;39432;51.902;10.844;2023-05-21T05:50:30;16.08;;;12.27;;
53545;SDS011;39432;51.902;10.844;2023-05-21T05:53:00;16.40;;;11.95;;
53545;SDS011;39432;51.902;10.844;2023-05-21T05:55:30;17.50;;;12.68;;
53545;SDS011;39432;51.902;10.844;2023-05-21T05:58:03;18.42;;;13.13;;
53545;SDS011;39432;51.902;10.844;2023-05-21T06:00:44;18.35;;;13.75;;
53545;SDS011;39432;51.902;10.844;2023-05-21T06:03:14;16.25;;;13.05;;
53545;SDS011;39432;51.902;10.844;2023-05-21T06:05:44;17.63;;;13.15;;
53545;SDS011;39432;51.902;10.844;2023-05-21T06:08:14;20.27;;;13.07;;
53545;SDS011;39432;51.902;10.844;2023-05-21T06:10:44;21.05;;;13.98;;
53545;SDS011;39432;51.902;10.844;2023-05-21T06:13:17;22.33;;;15.93;;
53545;SDS011;39432;51.902;10.844;2023-05-21T06:15:46;20.52;;;13.25;;
53545;SDS011;39432;51.902;10.844;2023-05-21T06:18:17;19.35;;;13.60;;
53545;SDS011;39432;51.902;10.844;2023-05-21T06:20:47;18.10;;;13.50;;
53545;SDS011;39432;51.902;10.844;2023-05-21T06:23:18;17.95;;;14.05;;
53545;SDS011;39432;51.902;10.844;2023-05-21T06:25:48;21.40;;;13.98;;
53545;SDS011;39432;51.902;10.844;2023-05-21T06:28:21;19.67;;;14.18;;
53545;SDS011;39432;51.902;10.844;2023-05-21T06:30:52;22.05;;;14.80;;
53545;SDS011;39432;51.902;10.844;2023-05-21T06:33:23;17.98;;;13.90;;
53545;SDS011;39432;51.902;10.844;2023-05-21T06:35:53;21.30;;;15.63;;
53545;SDS011;39432;51.902;10.844;2023-05-21T06:38:24;20.10;;;14.82;;
53545;SDS011;39432;51.902;10.844;2023-05-21T06:40:54;19.92;;;16.05;;
53545;SDS011;39432;51.902;10.844;2023-05-21T06:43:40;22.05;;;15.52;;
53545;SDS011;39432;51.902;10.844;2023-05-21T06:46:36;21.92;;;15.55;;
53545;SDS011;39432;51.902;10.844;2023-05-21T06:49:07;23.65;;;15.95;;
53545;SDS011;39432;51.902;10.844;2023-05-21T06:51:40;19.67;;;14.68;;
53545;SDS011;39432;51.902;10.844;2023-05-21T06:54:11;21.45;;;14.68;;
53545;SDS011;39432;51.902;10.844;2023-05-21T06:56:41;19.95;;;15.63;;
53545;SDS011;39432;51.902;10.844;2023-05-21T06:59:16;18.60;;;14.35;;
53545;SDS011;39432;51.902;10.844;2023-05-21T07:01:46;24.75;;;15.82;;
53545;SDS011;39432;51.902;10.844;2023-05-21T07:04:16;21.10;;;16.42;;
53545;SDS011;39432;51.902;10.844;2023-05-21T07:06:46;25.25;;;15.95;;
53545;SDS011;39432;51.902;10.844;2023-05-21T07:09:18;20.50;;;15.77;;
53545;SDS011;39432;51.902;10.844;2023-05-21T07:11:48;21.27;;;16.00;;
53545;SDS011;39432;51.902;10.844;2023-05-21T07:14:24;21.67;;;15.93;;
53545;SDS011;39432;51.902;10.844;2023-05-21T07:16:55;20.98;;;14.93;;
53545;SDS011;39432;51.902;10.844;2023-05-21T07:19:25;22.05;;;16.50;;
53545;SDS011;39432;51.902;10.844;2023-05-21T07:21:56;22.70;;;15.93;;
53545;SDS011;39432;51.902;10.844;2023-05-21T07:24:26;23.77;;;15.98;;
53545;SDS011;39432;51.902;10.844;2023-05-21T07:26:56;20.75;;;16.23;;
53545;SDS011;39432;51.902;10.844;2023-05-21T07:29:32;20.88;;;15.63;;
53545;SDS011;39432;51.902;10.844;2023-05-21T07:32:02;23.20;;;16.30;;
53545;SDS011;39432;51.902;10.844;2023-05-21T07:34:34;21.55;;;15.98;;
53545;SDS011;39432;51.902;10.844;2023-05-21T07:37:04;22.00;;;15.68;;
53545;SDS011;39432;51.902;10.844;2023-05-21T07:39:34;25.40;;;15.02;;
53545;SDS011;39432;51.902;10.844;2023-05-21T07:42:04;24.77;;;16.75;;
53545;SDS011;39432;51.902;10.844;2023-05-21T07:44:37;20.77;;;14.98;;
53545;SDS011;39432;51.902;10.844;2023-05-21T07:47:07;22.17;;;15.38;;
53545;SDS011;39432;51.902;10.844;2023-05-21T07:49:37;21.27;;;14.27;;
53545;SDS011;39432;51.902;10.844;2023-05-21T07:52:07;21.00;;;15.27;;
53545;SDS011;39432;51.902;10.844;2023-05-21T07:54:37;22.85;;;14.93;;
53545;SDS011;39432;51.902;10.844;2023-05-21T07:57:07;20.55;;;14.48;;
53545;SDS011;39432;51.902;10.844;2023-05-21T07:59:52;20.35;;;15.70;;
53545;SDS011;39432;51.902;10.844;2023-05-21T08:02:22;20.55;;;15.20;;
53545;SDS011;39432;51.902;10.844;2023-05-21T08:04:52;24.65;;;15.50;;
53545;SDS011;39432;51.902;10.844;2023-05-21T08:07:23;20.05;;;15.70;;
53545;SDS011;39432;51.902;10.844;2023-05-21T08:09:53;20.60;;;15.05;;
53545;SDS011;39432;51.902;10.844;2023-05-21T08:12:23;20.35;;;15.25;;
53545;SDS011;39432;51.902;10.844;2023-05-21T08:14:58;19.85;;;14.45;;
53545;SDS011;39432;51.902;10.844;2023-05-21T08:17:30;22.98;;;15.23;;
53545;SDS011;39432;51.902;10.844;2023-05-21T08:19:59;19.65;;;15.40;;
53545;SDS011;39432;51.902;10.844;2023-05-21T08:22:31;22.98;;;15.45;;
53545;SDS011;39432;51.902;10.844;2023-05-21T08:25:01;18.45;;;15.00;;
53545;SDS011;39432;51.902;10.844;2023-05-21T08:27:31;23.20;;;14.70;;
53545;SDS011;39432;51.902;10.844;2023-05-21T08:30:05;20.60;;;14.63;;
53545;SDS011;39432;51.902;10.844;2023-05-21T08:32:37;22.73;;;15.90;;
53545;SDS011;39432;51.902;10.844;2023-05-21T08:35:07;23.65;;;15.57;;
53545;SDS011;39432;51.902;10.844;2023-05-21T08:37:54;21.05;;;15.32;;
53545;SDS011;39432;51.902;10.844;2023-05-21T08:40:39;21.65;;;15.25;;
53545;SDS011;39432;51.902;10.844;2023-05-21T08:43:09;20.10;;;16.35;;
53545;SDS011;39432;51.902;10.844;2023-05-21T08:45:48;23.33;;;15.45;;
53545;SDS011;39432;51.902;10.844;2023-05-21T08:48:24;25.38;;;17.17;;
53545;SDS011;39432;51.902;10.844;2023-05-21T08:50:55;23.98;;;16.30;;
53545;SDS011;39432;51.902;10.844;2023-05-21T08:53:31;24.45;;;14.55;;
53545;SDS011;39432;51.902;10.844;2023-05-21T08:56:04;22.00;;;17.17;;
53545;SDS011;39432;51.902;10.844;2023-05-21T08:58:42;25.30;;;16.27;;
53545;SDS011;39432;51.902;10.844;2023-05-21T09:01:19;22.98;;;16.92;;
53545;SDS011;39432;51.902;10.844;2023-05-21T09:03:58;23.58;;;14.75;;
53545;SDS011;39432;51.902;10.844;2023-05-21T09:06:45;20.65;;;14.25;;
53545;SDS011;39432;51.902;10.844;2023-05-21T09:09:23;21.08;;;14.20;;
53545;SDS011;39432;51.902;10.844;2023-05-21T09:11:56;20.73;;;14.88;;
53545;SDS011;39432;51.902;10.844;2023-05-21T09:14:26;20.52;;;15.15;;
53545;SDS011;39432;51.902;10.844;2023-05-21T09:17:20;20.88;;;15.27;;
53545;SDS011;39432;51.902;10.844;2023-05-21T09:20:08;21.33;;;14.60;;
53545;SDS011;39432;51.902;10.844;2023-05-21T09:22:49;20.60;;;14.55;;
53545;SDS011;39432;51.902;10.844;2023-05-21T09:25:20;22.33;;;14.48;;
53545;SDS011;39432;51.902;10.844;2023-05-21T09:27:56;19.58;;;14.20;;
53545;SDS011;39432;51.902;10.844;2023-05-21T09:30:26;25.70;;;15.40;;
53545;SDS011;39432;51.902;10.844;2023-05-21T09:33:04;20.47;;;14.40;;
53545;SDS011;39432;51.902;10.844;2023-05-21T09:35:33;19.77;;;14.65;;
53545;SDS011;39432;51.902;10.844;2023-05-21T09:38:07;25.92;;;16.27;;
53545;SDS011;39432;51.902;10.844;2023-05-21T09:40:38;21.73;;;15.95;;
53545;SDS011;39432;51.902;10.844;2023-05-21T09:43:14;21.88;;;15.45;;
53545;SDS011;39432;51.902;10.844;2023-05-21T09:45:50;22.23;;;15.23;;
53545;SDS011;39432;51.902;10.844;2023-05-21T09:48:38;26.38;;;14.93;;
53545;SDS011;39432;51.902;10.844;2023-05-21T09:51:13;20.50;;;14.73;;
53545;SDS011;39432;51.902;10.844;2023-05-21T09:53:48;23.55;;;14.93;;
53545;SDS011;39432;51.902;10.844;2023-05-21T09:56:19;21.27;;;15.63;;
53545;SDS011;39432;51.902;10.844;2023-05-21T09:58:52;19.98;;;15.40;;
53545;SDS011;39432;51.902;10.844;2023-05-21T10:01:22;23.95;;;14.75;;
53545;SDS011;39432;51.902;10.844;2023-05-21T10:03:56;20.98;;;15.88;;
53545;SDS011;39432;51.902;10.844;2023-05-21T10:06:27;21.70;;;14.75;;
53545;SDS011;39432;51.902;10.844;2023-05-21T10:08:58;24.13;;;15.60;;
53545;SDS011;39432;51.902;10.844;2023-05-21T10:11:31;20.50;;;16.02;;
53545;SDS011;39432;51.902;10.844;2023-05-21T10:14:04;19.90;;;14.57;;
53545;SDS011;39432;51.902;10.844;2023-05-21T10:16:35;20.85;;;15.75;;
53545;SDS011;39432;51.902;10.844;2023-05-21T10:19:08;21.50;;;15.52;;
53545;SDS011;39432;51.902;10.844;2023-05-21T10:21:38;18.45;;;13.80;;
53545;SDS011;39432;51.902;10.844;2023-05-21T10:24:09;22.25;;;15.48;;
53545;SDS011;39432;51.902;10.844;2023-05-21T10:26:40;24.42;;;15.13;;
53545;SDS011;39432;51.902;10.844;2023-05-21T10:29:11;22.75;;;15.57;;
53545;SDS011;39432;51.902;10.844;2023-05-21T10:31:45;23.20;;;14.98;;
53545;SDS011;39432;51.902;10.844;2023-05-21T10:34:18;21.02;;;15.23;;
53545;SDS011;39432;51.902;10.844;2023-05-21T10:36:50;22.52;;;16.58;;
53545;SDS011;39432;51.902;10.844;2023-05-21T10:39:22;20.65;;;14.88;;
53545;SDS011;39432;51.902;10.844;2023-05-21T10:41:55;22.70;;;15.88;;
53545;SDS011;39432;51.902;10.844;2023-05-21T10:44:36;22.73;;;15.93;;
53545;SDS011;39432;51.902;10.844;2023-05-21T10:50:32;21.60;;;15.88;;
53545;SDS011;39432;51.902;10.844;2023-05-21T10:53:15;22.00;;;14.75;;
53545;SDS011;39432;51.902;10.844;2023-05-21T10:55:57;22.20;;;14.80;;
53545;SDS011;39432;51.902;10.844;2023-05-21T10:58:47;21.33;;;14.30;;
53545;SDS011;39432;51.902;10.844;2023-05-21T11:01:28;23.77;;;15.30;;
53545;SDS011;39432;51.902;10.844;2023-05-21T11:04:02;21.40;;;16.20;;
53545;SDS011;39432;51.902;10.844;2023-05-21T11:06:35;20.27;;;14.82;;
53545;SDS011;39432;51.902;10.844;2023-05-21T11:09:10;20.58;;;14.07;;
53545;SDS011;39432;51.902;10.844;2023-05-21T11:11:41;19.77;;;15.55;;
53545;SDS011;39432;51.902;10.844;2023-05-21T11:17:01;20.65;;;14.38;;
53545;SDS011;39432;51.902;10.844;2023-05-21T11:19:36;21.15;;;13.88;;
53545;SDS011;39432;51.902;10.844;2023-05-21T11:22:21;21.70;;;14.10;;
53545;SDS011;39432;51.902;10.844;2023-05-21T11:24:53;19.67;;;14.15;;
53545;SDS011;39432;51.902;10.844;2023-05-21T11:27:30;19.88;;;14.15;;
53545;SDS011;39432;51.902;10.844;2023-05-21T11:30:02;20.50;;;13.98;;
53545;SDS011;39432;51.902;10.844;2023-05-21T11:32:37;20.67;;;13.05;;
53545;SDS011;39432;51.902;10.844;2023-05-21T11:35:08;14.95;;;12.02;;
53545;SDS011;39432;51.902;10.844;2023-05-21T11:37:45;15.00;;;12.05;;
53545;SDS011;39432;51.902;10.844;2023-05-21T11:40:22;17.38;;;12.07;;
53545;SDS011;39432;51.902;10.844;2023-05-21T11:42:54;15.43;;;11.50;;
53545;SDS011;39432;51.902;10.844;2023-05-21T11:45:27;18.52;;;11.20;;
53545;SDS011;39432;51.902;10.844;2023-05-21T11:47:59;16.55;;;10.77;;
53545;SDS011;39432;51.902;10.844;2023-05-21T11:50:29;14.30;;;11.38;;
53545;SDS011;39432;51.902;10.844;2023-05-21T11:53:02;14.27;;;10.30;;
53545;SDS011;39432;51.902;10.844;2023-05-21T11:55:33;13.00;;;10.20;;
53545;SDS011;39432;51.902;10.844;2023-05-21T11:58:09;13.60;;;9.98;;
53545;SDS011;39432;51.902;10.844;2023-05-21T12:03:14;13.60;;;10.20;;
53545;SDS011;39432;51.902;10.844;2023-05-21T12:05:44;16.52;;;10.88;;
53545;SDS011;39432;51.902;10.844;2023-05-21T12:08:22;15.80;;;10.48;;
53545;SDS011;39432;51.902;10.844;2023-05-21T12:10:54;15.05;;;10.80;;
53545;SDS011;39432;51.902;10.844;2023-05-21T12:13:27;13.13;;;9.38;;
53545;SDS011;39432;51.902;10.844;2023-05-21T12:15:57;15.48;;;9.38;;
53545;SDS011;39432;51.902;10.844;2023-05-21T12:18:29;12.27;;;9.18;;
53545;SDS011;39432;51.902;10.844;2023-05-21T12:20:59;14.80;;;8.98;;
53545;SDS011;39432;51.902;10.844;2023-05-21T12:23:31;15.55;;;8.55;;
53545;SDS011;39432;51.902;10.844;2023-05-21T12:26:01;15.35;;;9.98;;
53545;SDS011;39432;51.902;10.844;2023-05-21T12:28:32;10.70;;;7.88;;
53545;SDS011;39432;51.902;10.844;2023-05-21T12:31:02;12.43;;;7.78;;
53545;SDS011;39432;51.902;10.844;2023-05-21T12:33:32;9.88;;;7.07;;
53545;SDS011;39432;51.902;10.844;2023-05-21T12:36:02;9.05;;;6.85;;
53545;SDS011;39432;51.902;10.844;2023-05-21T12:38:35;10.38;;;7.47;;
53545;SDS011;39432;51.902;10.844;2023-05-21T12:41:05;12.45;;;7.03;;
53545;SDS011;39432;51.902;10.844;2023-05-21T12:43:35;10.82;;;7.40;;
53545;SDS011;39432;51.902;10.844;2023-05-21T12:46:05;9.73;;;7.93;;
53545;SDS011;39432;51.902;10.844;2023-05-21T12:48:37;12.73;;;8.35;;
53545;SDS011;39432;51.902;10.844;2023-05-21T12:51:08;12.75;;;7.80;;
53545;SDS011;39432;51.902;10.844;2023-05-21T12:53:40;12.18;;;8.20;;
53545;SDS011;39432;51.902;10.844;2023-05-21T12:56:10;10.05;;;7.22;;
53545;SDS011;39432;51.902;10.844;2023-05-21T12:58:41;8.23;;;7.00;;
53545;SDS011;39432;51.902;10.844;2023-05-21T13:01:11;10.68;;;7.45;;
53545;SDS011;39432;51.902;10.844;2023-05-21T13:03:41;10.40;;;6.82;;
53545;SDS011;39432;51.902;10.844;2023-05-21T13:06:11;12.63;;;7.43;;
53545;SDS011;39432;51.902;10.844;2023-05-21T13:08:44;10.32;;;7.25;;
53545;SDS011;39432;51.902;10.844;2023-05-21T13:11:13;14.40;;;7.30;;
53545;SDS011;39432;51.902;10.844;2023-05-21T13:13:43;11.15;;;7.03;;
53545;SDS011;39432;51.902;10.844;2023-05-21T13:16:13;9.32;;;6.65;;
53545;SDS011;39432;51.902;10.844;2023-05-21T13:18:45;9.15;;;7.20;;
53545;SDS011;39432;51.902;10.844;2023-05-21T13:21:15;9.88;;;6.82;;
53545;SDS011;39432;51.902;10.844;2023-05-21T13:23:47;9.48;;;7.05;;
53545;SDS011;39432;51.902;10.844;2023-05-21T13:26:17;12.18;;;7.30;;
53545;SDS011;39432;51.902;10.844;2023-05-21T13:28:47;9.93;;;7.57;;
53545;SDS011;39432;51.902;10.844;2023-05-21T13:31:16;9.73;;;7.07;;
53545;SDS011;39432;51.902;10.844;2023-05-21T13:33:46;9.77;;;7.15;;
53545;SDS011;39432;51.902;10.844;2023-05-21T13:36:16;10.95;;;8.13;;
53545;SDS011;39432;51.902;10.844;2023-05-21T13:38:48;12.10;;;7.50;;
53545;SDS011;39432;51.902;10.844;2023-05-21T13:41:18;10.05;;;7.53;;
53545;SDS011;39432;51.902;10.844;2023-05-21T13:43:48;8.73;;;7.15;;
53545;SDS011;39432;51.902;10.844;2023-05-21T13:46:18;13.75;;;7.28;;
53545;SDS011;39432;51.902;10.844;2023-05-21T13:48:47;8.43;;;7.00;;
53545;SDS011;39432;51.902;10.844;2023-05-21T13:51:17;11.27;;;7.35;;
53545;SDS011;39432;51.902;10.844;2023-05-21T13:54:05;11.95;;;7.63;;
53545;SDS011;39432;51.902;10.844;2023-05-21T13:56:35;11.20;;;7.35;;
53545;SDS011;39432;51.902;10.844;2023-05-21T13:59:06;11.68;;;7.80;;
53545;SDS011;39432;51.902;10.844;2023-05-21T14:01:35;9.73;;;7.45;;
53545;SDS011;39432;51.902;10.844;2023-05-21T14:04:05;12.05;;;7.78;;
53545;SDS011;39432;51.902;10.844;2023-05-21T14:06:35;7.78;;;6.80;;
53545;SDS011;39432;51.902;10.844;2023-05-21T14:09:07;12.57;;;7.88;;
53545;SDS011;39432;51.902;10.844;2023-05-21T14:11:37;12.63;;;7.60;;
53545;SDS011;39432;51.902;10.844;2023-05-21T14:14:07;11.93;;;8.27;;
53545;SDS011;39432;51.902;10.844;2023-05-21T14:16:39;10.55;;;8.20;;
53545;SDS011;39432;51.902;10.844;2023-05-21T14:19:09;11.10;;;7.85;;
53545;SDS011;39432;51.902;10.844;2023-05-21T14:21:39;9.98;;;7.03;;
53545;SDS011;39432;51.902;10.844;2023-05-21T14:24:12;10.07;;;8.23;;
53545;SDS011;39432;51.902;10.844;2023-05-21T14:26:41;10.32;;;7.40;;
53545;SDS011;39432;51.902;10.844;2023-05-21T14:29:11;11.45;;;7.10;;
53545;SDS011;39432;51.902;10.844;2023-05-21T14:31:41;10.05;;;7.63;;
53545;SDS011;39432;51.902;10.844;2023-05-21T14:34:11;9.45;;;7.38;;
53545;SDS011;39432;51.902;10.844;2023-05-21T14:36:41;10.93;;;7.85;;
53545;SDS011;39432;51.902;10.844;2023-05-21T14:39:14;11.10;;;7.50;;
53545;SDS011;39432;51.902;10.844;2023-05-21T14:41:43;8.25;;;7.05;;
53545;SDS011;39432;51.902;10.844;2023-05-21T14:44:13;10.43;;;7.10;;
53545;SDS011;39432;51.902;10.844;2023-05-21T14:46:43;10.23;;;7.57;;
53545;SDS011;39432;51.902;10.844;2023-05-21T14:49:13;10.55;;;7.40;;
53545;SDS011;39432;51.902;10.844;2023-05-21T14:51:45;12.02;;;7.28;;